Time;durP1;ratioP1;P1;durP2;ratioP2;P2;SDS_P1;SDS_P2;PMS_P1;PMS_P2;Temp;Humidity;BMP_temperature;BMP_pressure;BME280_temperature;BME280_humidity;BME280_pressure;Samples;Min_cycle;Max_cycle;Signal;HPM_P1;HPM_P2
2022/10/11 00:00:22;;;;;;;5.90;4.20;;;13.00;99.90;;;;;;494539;241;28368;-79
2022/10/11 00:02:24;;;;;;;5.90;4.17;;;;;;;;;;494368;241;28269;-80
2022/10/11 00:04:25;;;;;;;8.93;4.67;;;13.00;99.90;;;;;;494360;241;26791;-80
2022/10/11 00:06:27;;;;;;;10.40;4.60;;;13.00;99.90;;;;;;494448;241;28111;-80
2022/10/11 00:08:29;;;;;;;8.70;4.43;;;;;;;;;;494364;241;28273;-82
2022/10/11 00:10:31;;;;;;;9.70;4.53;;;13.10;99.90;;;;;;494549;241;26959;-79
2022/10/11 00:12:32;;;;;;;6.47;4.47;;;13.10;99.90;;;;;;494538;241;28294;-80
2022/10/11 00:14:34;;;;;;;7.93;3.60;;;;;;;;;;494529;241;27924;-81
2022/10/11 00:16:38;;;;;;;7.90;4.33;;;13.10;99.90;;;;;;494337;241;27031;-80
2022/10/11 00:18:37;;;;;;;7.87;4.20;;;13.10;99.90;;;;;;494360;241;28282;-79
2022/10/11 00:20:39;;;;;;;6.97;4.03;;;;;;;;;;494538;241;28377;-81
2022/10/11 00:22:40;;;;;;;6.00;4.40;;;13.20;99.90;;;;;;494540;241;26757;-80
2022/10/11 00:24:43;;;;;;;8.47;4.33;;;;;;;;;;494521;241;28123;-80
2022/10/11 00:26:44;;;;;;;7.33;4.30;;;13.20;99.90;;;;;;494337;240;26842;-80
2022/10/11 00:28:45;;;;;;;6.37;4.10;;;13.20;99.90;;;;;;494585;241;28028;-79
2022/10/11 00:30:47;;;;;;;6.03;3.87;;;13.20;99.90;;;;;;494534;241;28002;-79
2022/10/11 00:32:49;;;;;;;6.87;4.80;;;13.20;99.90;;;;;;494520;241;28054;-80
2022/10/11 00:34:49;;;;;;;7.37;4.77;;;13.30;99.90;;;;;;494517;240;28321;-79
2022/10/11 00:36:51;;;;;;;10.87;7.43;;;;;;;;;;494501;241;28335;-80
2022/10/11 00:38:53;;;;;;;13.17;8.00;;;13.20;99.90;;;;;;494437;240;26334;-80
2022/10/11 00:40:54;;;;;;;18.50;10.00;;;13.20;99.90;;;;;;494543;241;28532;-79
2022/10/11 00:42:56;;;;;;;12.33;8.20;;;;;;;;;;494594;241;28674;-81
2022/10/11 00:44:57;;;;;;;13.63;8.43;;;13.20;99.90;;;;;;494580;241;27325;-79
2022/10/11 00:46:59;;;;;;;14.53;8.70;;;13.20;99.90;;;;;;494369;241;28364;-79
2022/10/11 00:49:01;;;;;;;14.33;9.10;;;;;;;;;;494416;241;28186;-81
2022/10/11 00:51:02;;;;;;;11.17;8.33;;;13.20;99.90;;;;;;494431;241;26920;-79
2022/10/11 00:53:04;;;;;;;13.80;9.40;;;13.20;99.90;;;;;;494572;241;27921;-79
2022/10/11 00:55:05;;;;;;;17.73;12.33;;;13.20;99.90;;;;;;494467;241;27933;-80
2022/10/11 00:57:06;;;;;;;21.77;11.53;;;13.20;99.90;;;;;;494338;241;28676;-80
2022/10/11 00:59:08;;;;;;;16.00;10.87;;;13.20;99.90;;;;;;494558;240;28286;-79
2022/10/11 01:01:09;;;;;;;18.47;9.87;;;13.20;99.90;;;;;;494547;241;27177;-79
2022/10/11 01:03:11;;;;;;;16.17;10.87;;;13.20;99.90;;;;;;494398;241;28264;-80
2022/10/11 01:05:13;;;;;;;17.63;11.07;;;;;;;;;;494362;241;28692;-80
2022/10/11 01:07:14;;;;;;;24.97;14.50;;;13.10;99.90;;;;;;494498;241;26994;-80
2022/10/11 01:09:17;;;;;;;26.03;12.37;;;;;;;;;;494539;241;28516;-80
2022/10/11 01:11:18;;;;;;;25.83;17.10;;;13.10;99.90;;;;;;494426;241;26924;-80
2022/10/11 01:13:19;;;;;;;24.93;16.50;;;13.00;99.90;;;;;;494387;241;28820;-80
2022/10/11 01:15:30;;;;;;;27.17;16.73;;;;;;;;;;494412;241;28773;-80
2022/10/11 01:17:40;;;;;;;27.20;17.60;;;;;;;;;;494386;237;27320;-81
2022/10/11 01:19:51;;;;;;;24.50;15.50;;;;;;;;;;494535;241;26798;-80
2022/10/11 01:22:02;;;;;;;21.90;15.03;;;;;;;;;;494418;241;26798;-80
2022/10/11 01:24:12;;;;;;;24.23;15.20;;;;;;;;;;494451;241;27019;-80
2022/10/11 01:26:23;;;;;;;23.93;15.30;;;;;;;;;;494533;241;26757;-82
2022/10/11 01:28:33;;;;;;;23.77;14.70;;;;;;;;;;494663;241;26772;-83
2022/10/11 01:30:43;;;;;;;26.07;16.37;;;;;;;;;;494669;241;27214;-81
2022/10/11 01:32:54;;;;;;;23.33;15.23;;;;;;;;;;494645;241;27531;-82
2022/10/11 01:35:05;;;;;;;22.60;12.80;;;;;;;;;;494678;241;26771;-82
2022/10/11 01:37:15;;;;;;;17.57;13.80;;;;;;;;;;494540;241;26804;-80
2022/10/11 01:39:26;;;;;;;18.13;11.10;;;;;;;;;;494565;237;27039;-81
2022/10/11 01:41:36;;;;;;;14.80;10.60;;;;;;;;;;494590;241;27784;-80
2022/10/11 01:43:47;;;;;;;15.83;9.47;;;;;;;;;;494419;241;26923;-81
2022/10/11 01:45:58;;;;;;;14.03;9.10;;;;;;;;;;494545;237;26816;-80
2022/10/11 01:48:08;;;;;;;11.73;9.13;;;;;;;;;;494499;237;27599;-81
2022/10/11 01:50:19;;;;;;;14.23;9.70;;;;;;;;;;494406;241;27507;-80
2022/10/11 01:52:29;;;;;;;11.47;9.50;;;;;;;;;;494444;241;26774;-81
2022/10/11 01:54:40;;;;;;;16.60;12.47;;;;;;;;;;494545;241;26810;-81
2022/10/11 01:56:51;;;;;;;24.40;14.70;;;;;;;;;;494340;237;26866;-81
2022/10/11 01:59:02;;;;;;;21.63;13.90;;;;;;;;;;494383;241;26802;-80
2022/10/11 02:01:12;;;;;;;20.70;13.90;;;;;;;;;;494379;241;27060;-80
2022/10/11 02:03:23;;;;;;;19.30;13.07;;;;;;;;;;494397;241;27600;-81
2022/10/11 02:05:33;;;;;;;21.33;13.90;;;;;;;;;;494588;239;27035;-82
2022/10/11 02:07:44;;;;;;;31.20;16.63;;;;;;;;;;494578;241;26992;-81
2022/10/11 02:09:54;;;;;;;28.10;16.70;;;;;;;;;;494588;241;27036;-80
2022/10/11 02:12:05;;;;;;;27.03;15.70;;;;;;;;;;494554;241;27492;-82
2022/10/11 02:14:16;;;;;;;22.73;15.03;;;;;;;;;;494547;241;27270;-81
2022/10/11 02:16:26;;;;;;;33.07;16.93;;;;;;;;;;494505;241;27568;-80
2022/10/11 02:18:37;;;;;;;23.63;15.90;;;;;;;;;;494576;241;26835;-82
2022/10/11 02:20:47;;;;;;;29.00;17.77;;;;;;;;;;494436;241;26972;-81
2022/10/11 02:22:57;;;;;;;23.77;16.27;;;;;;;;;;494561;241;26828;-80
2022/10/11 02:25:08;;;;;;;17.37;14.40;;;;;;;;;;494566;241;26833;-81
2022/10/11 02:27:18;;;;;;;30.43;14.10;;;;;;;;;;494438;237;26912;-80
2022/10/11 02:29:29;;;;;;;20.03;12.27;;;;;;;;;;494550;241;27623;-80
2022/10/11 02:31:39;;;;;;;17.53;12.80;;;;;;;;;;494545;241;27054;-81
2022/10/11 02:33:50;;;;;;;20.67;13.70;;;;;;;;;;494419;241;27432;-81
2022/10/11 02:36:00;;;;;;;19.93;14.07;;;;;;;;;;494428;241;26971;-79
2022/10/11 02:38:11;;;;;;;23.10;14.57;;;;;;;;;;494511;237;26942;-80
2022/10/11 02:40:21;;;;;;;26.27;14.87;;;;;;;;;;494444;241;27483;-80
2022/10/11 02:42:32;;;;;;;27.83;13.90;;;;;;;;;;494572;241;27053;-82
2022/10/11 02:44:42;;;;;;;20.30;14.17;;;;;;;;;;494522;241;26964;-81
2022/10/11 02:46:52;;;;;;;23.60;16.13;;;;;;;;;;494492;241;26927;-81
2022/10/11 02:49:03;;;;;;;24.27;17.70;;;;;;;;;;494593;241;27357;-81
2022/10/11 02:51:13;;;;;;;25.07;17.03;;;;;;;;;;494534;237;27863;-80
2022/10/11 02:53:24;;;;;;;25.47;16.33;;;;;;;;;;494559;241;26816;-81
2022/10/11 02:55:34;;;;;;;25.90;17.50;;;;;;;;;;494542;241;27521;-81
2022/10/11 02:57:45;;;;;;;23.17;15.97;;;;;;;;;;494474;241;26925;-82
2022/10/11 02:59:55;;;;;;;26.37;16.40;;;;;;;;;;494406;237;27282;-82
2022/10/11 03:02:05;;;;;;;22.13;14.93;;;;;;;;;;494427;241;26960;-81
2022/10/11 03:04:16;;;;;;;21.03;13.53;;;;;;;;;;494551;241;27546;-80
2022/10/11 03:06:26;;;;;;;18.33;11.80;;;;;;;;;;494508;241;26809;-81
2022/10/11 03:08:37;;;;;;;15.20;10.97;;;;;;;;;;494549;241;27314;-81
2022/10/11 03:10:48;;;;;;;17.63;11.60;;;;;;;;;;494522;241;27070;-81
2022/10/11 03:12:58;;;;;;;15.90;12.07;;;;;;;;;;494511;241;27500;-80
2022/10/11 03:15:08;;;;;;;20.50;13.80;;;;;;;;;;494432;241;27475;-81
2022/10/11 03:17:19;;;;;;;24.10;13.97;;;;;;;;;;494316;238;27052;-81
2022/10/11 03:19:29;;;;;;;21.17;14.10;;;;;;;;;;494532;241;27076;-82
2022/10/11 03:21:40;;;;;;;20.50;13.83;;;;;;;;;;494553;241;26815;-80
2022/10/11 03:23:50;;;;;;;20.07;13.10;;;;;;;;;;494396;241;27528;-80
2022/10/11 03:26:01;;;;;;;22.73;14.27;;;;;;;;;;494381;241;26947;-81
2022/10/11 03:28:11;;;;;;;20.33;13.53;;;;;;;;;;494497;241;26843;-80
2022/10/11 03:30:22;;;;;;;21.80;13.60;;;;;;;;;;494409;241;27089;-82
2022/10/11 03:32:32;;;;;;;22.97;15.17;;;;;;;;;;494418;241;26842;-80
2022/10/11 03:34:42;;;;;;;18.53;13.47;;;;;;;;;;494530;241;26827;-81
2022/10/11 03:36:53;;;;;;;16.70;13.03;;;;;;;;;;494350;237;27031;-82
2022/10/11 03:39:03;;;;;;;22.80;15.80;;;;;;;;;;494550;241;26936;-80
2022/10/11 03:41:14;;;;;;;22.23;13.77;;;;;;;;;;494560;241;26957;-82
2022/10/11 03:43:25;;;;;;;20.17;12.50;;;;;;;;;;494428;241;27022;-81
2022/10/11 03:45:35;;;;;;;18.90;12.53;;;;;;;;;;494412;241;27220;-80
2022/10/11 03:47:45;;;;;;;19.20;12.60;;;;;;;;;;494469;241;26855;-80
2022/10/11 03:49:55;;;;;;;17.10;11.63;;;;;;;;;;494525;241;27416;-80
2022/10/11 03:52:06;;;;;;;27.87;13.37;;;;;;;;;;494557;237;27380;-82
2022/10/11 03:54:16;;;;;;;16.90;11.03;;;;;;;;;;494574;241;26891;-80
2022/10/11 03:56:27;;;;;;;14.27;10.10;;;;;;;;;;494345;241;26885;-80
2022/10/11 03:58:37;;;;;;;16.40;10.50;;;;;;;;;;494509;241;27508;-81
2022/10/11 04:00:48;;;;;;;16.60;11.30;;;;;;;;;;494530;241;26690;-82
2022/10/11 04:02:59;;;;;;;20.03;10.93;;;;;;;;;;494437;241;26818;-79
2022/10/11 04:05:11;;;;;;;13.77;8.30;;;;;;;;;;494407;241;27431;-81
2022/10/11 04:07:20;;;;;;;11.77;8.30;;;;;;;;;;494242;241;27030;-79
2022/10/11 04:09:34;;;;;;;18.00;8.90;;;;;;;;;;494395;241;26798;-80
2022/10/11 04:11:47;;;;;;;12.30;8.50;;;;;;;;;;494520;241;26923;-79
2022/10/11 04:14:02;;;;;;;9.67;7.63;;;;;;;;;;494540;241;26723;-80
2022/10/11 04:16:15;;;;;;;15.57;7.57;;;;;;;;;;494588;241;26728;-80
2022/10/11 04:18:29;;;;;;;10.37;7.33;;;;;;;;;;494580;240;27348;-81
2022/10/11 04:20:42;;;;;;;10.13;6.63;;;;;;;;;;494572;241;26743;-81
2022/10/11 04:22:55;;;;;;;10.10;7.03;;;;;;;;;;494550;241;26449;-81
2022/10/11 04:25:07;;;;;;;14.80;7.83;;;;;;;;;;494422;241;26455;-80
2022/10/11 04:27:20;;;;;;;11.40;7.13;;;;;;;;;;494338;241;26617;-80
2022/10/11 04:29:32;;;;;;;10.07;6.30;;;;;;;;;;494448;241;26718;-80
2022/10/11 04:31:45;;;;;;;10.17;6.50;;;;;;;;;;494560;241;27200;-80
2022/10/11 04:33:57;;;;;;;8.90;5.83;;;;;;;;;;494554;241;26584;-81
2022/10/11 04:36:09;;;;;;;12.07;6.90;;;;;;;;;;494422;241;26564;-80
2022/10/11 04:38:22;;;;;;;6.80;4.93;;;;;;;;;;494369;241;26834;-81
2022/10/11 04:40:34;;;;;;;6.83;5.27;;;;;;;;;;494084;241;27472;-80
2022/10/11 04:42:46;;;;;;;6.20;4.80;;;;;;;;;;494442;241;26712;-81
2022/10/11 04:44:58;;;;;;;13.73;5.33;;;;;;;;;;494413;237;27267;-80
2022/10/11 04:47:10;;;;;;;6.77;4.90;;;;;;;;;;494441;237;26777;-81
2022/10/11 04:49:22;;;;;;;6.77;4.23;;;;;;;;;;494439;241;27101;-82
2022/10/11 04:51:34;;;;;;;10.47;4.73;;;;;;;;;;494440;241;26698;-81
2022/10/11 04:53:46;;;;;;;10.77;4.97;;;;;;;;;;494560;241;26717;-81
2022/10/11 04:55:59;;;;;;;7.53;4.53;;;;;;;;;;494541;241;26785;-81
2022/10/11 04:58:10;;;;;;;5.70;5.10;;;;;;;;;;494316;241;26711;-81
2022/10/11 05:00:22;;;;;;;5.63;4.33;;;;;;;;;;494451;241;26673;-79
2022/10/11 05:02:34;;;;;;;5.80;4.23;;;;;;;;;;494467;241;26614;-80
2022/10/11 05:04:46;;;;;;;9.90;4.43;;;;;;;;;;494440;241;27197;-80
2022/10/11 05:06:58;;;;;;;5.70;4.70;;;;;;;;;;494413;241;27161;-80
2022/10/11 05:09:10;;;;;;;5.30;3.80;;;;;;;;;;494448;237;26677;-80
2022/10/11 05:11:22;;;;;;;8.00;5.07;;;;;;;;;;494589;241;27303;-81
2022/10/11 05:13:35;;;;;;;5.50;4.10;;;;;;;;;;494478;240;26683;-82
2022/10/11 05:15:47;;;;;;;7.50;4.73;;;;;;;;;;494555;241;26785;-80
2022/10/11 05:17:59;;;;;;;6.27;4.40;;;;;;;;;;494444;237;26801;-81
2022/10/11 05:20:11;;;;;;;4.87;4.10;;;;;;;;;;494473;241;27158;-80
2022/10/11 05:22:23;;;;;;;11.97;4.53;;;;;;;;;;494457;241;26596;-80
2022/10/11 05:24:35;;;;;;;7.07;3.40;;;;;;;;;;494444;241;27350;-80
2022/10/11 05:26:47;;;;;;;5.20;3.57;;;;;;;;;;494347;241;26715;-79
2022/10/11 05:28:59;;;;;;;6.60;4.10;;;;;;;;;;494458;241;27246;-81
2022/10/11 05:31:11;;;;;;;8.73;4.60;;;;;;;;;;494438;241;26604;-81
2022/10/11 05:33:23;;;;;;;9.50;4.50;;;;;;;;;;494582;241;26719;-81
2022/10/11 05:35:35;;;;;;;6.03;3.83;;;;;;;;;;494563;241;26546;-80
2022/10/11 05:37:47;;;;;;;6.33;4.60;;;;;;;;;;494504;241;26662;-80
2022/10/11 05:39:59;;;;;;;7.23;4.63;;;;;;;;;;494585;241;26761;-79
2022/10/11 05:42:12;;;;;;;7.70;5.83;;;;;;;;;;494582;241;26677;-81
2022/10/11 05:44:24;;;;;;;8.37;4.90;;;;;;;;;;494581;241;27250;-83
2022/10/11 05:46:36;;;;;;;10.97;4.87;;;;;;;;;;494396;237;26699;-80
2022/10/11 05:48:48;;;;;;;5.33;4.70;;;;;;;;;;494586;241;27134;-83
2022/10/11 05:51:01;;;;;;;10.53;5.33;;;;;;;;;;494456;241;26788;-82
2022/10/11 05:53:12;;;;;;;11.13;5.10;;;;;;;;;;494520;241;26834;-80
2022/10/11 05:55:24;;;;;;;7.30;5.33;;;;;;;;;;494575;241;26785;-82
2022/10/11 05:57:36;;;;;;;6.27;4.50;;;;;;;;;;494402;241;26462;-83
2022/10/11 05:59:48;;;;;;;11.73;4.33;;;;;;;;;;494575;241;26485;-82
2022/10/11 06:02:00;;;;;;;7.30;3.73;;;;;;;;;;494441;241;26715;-82
2022/10/11 06:04:13;;;;;;;6.87;4.23;;;;;;;;;;494584;241;26781;-81
2022/10/11 06:06:24;;;;;;;6.50;4.00;;;;;;;;;;494409;241;26682;-81
2022/10/11 06:08:36;;;;;;;7.87;4.40;;;;;;;;;;494436;241;26711;-82
2022/10/11 06:10:48;;;;;;;4.80;4.30;;;;;;;;;;494593;241;26559;-81
2022/10/11 06:13:00;;;;;;;7.13;4.03;;;;;;;;;;494447;237;27210;-81
2022/10/11 06:15:13;;;;;;;6.77;4.13;;;;;;;;;;494576;241;26545;-82
2022/10/11 06:17:24;;;;;;;7.40;4.10;;;;;;;;;;494406;237;26563;-81
2022/10/11 06:19:36;;;;;;;8.00;4.37;;;;;;;;;;494452;241;26326;-81
2022/10/11 06:21:48;;;;;;;6.80;3.60;;;;;;;;;;494457;241;26342;-79
2022/10/11 06:24:01;;;;;;;9.40;4.03;;;;;;;;;;494479;241;26563;-78
2022/10/11 06:26:12;;;;;;;10.03;3.73;;;;;;;;;;494616;241;26729;-82
2022/10/11 06:28:24;;;;;;;9.57;3.70;;;;;;;;;;494597;241;26463;-83
2022/10/11 06:30:36;;;;;;;12.90;3.97;;;;;;;;;;494469;241;26789;-83
2022/10/11 06:32:48;;;;;;;11.17;3.43;;;;;;;;;;494552;241;26238;-81
2022/10/11 06:35:02;;;;;;;11.07;4.10;;;;;;;;;;494468;241;26788;-80
2022/10/11 06:37:12;;;;;;;9.10;4.30;;;;;;;;;;494351;237;27431;-82
2022/10/11 06:39:24;;;;;;;10.03;3.77;;;;;;;;;;494585;241;26685;-81
2022/10/11 06:41:36;;;;;;;10.23;3.20;;;;;;;;;;494489;241;26710;-79
2022/10/11 06:43:49;;;;;;;7.47;3.60;;;;;;;;;;494455;241;27125;-83
2022/10/11 06:46:01;;;;;;;5.67;3.57;;;;;;;;;;494445;241;26662;-82
2022/10/11 06:48:12;;;;;;;6.37;3.40;;;;;;;;;;494516;237;26579;-82
2022/10/11 06:50:24;;;;;;;10.37;4.13;;;;;;;;;;494434;241;26783;-83
2022/10/11 06:52:36;;;;;;;13.63;3.37;;;;;;;;;;494476;241;26743;-80
2022/10/11 06:54:48;;;;;;;7.40;3.90;;;;;;;;;;494451;241;26896;-82
2022/10/11 06:56:59;;;;;;;3.80;2.87;;;;;;;;;;494472;241;26690;-82
2022/10/11 06:59:12;;;;;;;8.47;3.20;;;;;;;;;;494582;241;26725;-81
2022/10/11 07:01:22;;;;;;;4.43;2.80;;;;;;;;;;494533;241;26435;-79
2022/10/11 07:03:34;;;;;;;4.10;2.80;;;;;;;;;;494594;241;26603;-81
2022/10/11 07:05:45;;;;;;;4.53;2.83;;;;;;;;;;494571;241;26714;-80
2022/10/11 07:07:57;;;;;;;5.37;3.47;;;;;;;;;;494470;241;26677;-82
2022/10/11 07:10:08;;;;;;;2.83;2.63;;;;;;;;;;494383;241;26460;-78
2022/10/11 07:12:20;;;;;;;7.40;2.90;;;;;;;;;;494356;237;26220;-82
2022/10/11 07:14:31;;;;;;;4.37;2.70;;;;;;;;;;494158;241;27245;-81
2022/10/11 07:16:43;;;;;;;7.03;2.70;;;;;;;;;;494139;237;27182;-82
2022/10/11 07:18:54;;;;;;;4.40;2.93;;;;;;;;;;494187;241;27140;-80
2022/10/11 07:21:06;;;;;;;4.90;2.70;;;;;;;;;;494217;241;26848;-82
2022/10/11 07:23:17;;;;;;;5.17;2.60;;;;;;;;;;494396;241;26576;-80
2022/10/11 07:25:29;;;;;;;11.80;2.80;;;;;;;;;;494387;241;26699;-80
2022/10/11 07:27:41;;;;;;;12.30;3.03;;;;;;;;;;494285;241;27430;-81
2022/10/11 07:29:52;;;;;;;6.93;2.80;;;;;;;;;;494395;241;27087;-82
2022/10/11 07:32:04;;;;;;;10.43;2.60;;;;;;;;;;494231;241;27026;-81
2022/10/11 07:34:15;;;;;;;3.93;2.40;;;;;;;;;;494182;241;26670;-81
2022/10/11 07:36:26;;;;;;;5.97;2.70;;;;;;;;;;494133;241;26454;-82
2022/10/11 07:38:37;;;;;;;6.50;2.97;;;;;;;;;;494171;241;27615;-82
2022/10/11 07:40:49;;;;;;;6.93;3.10;;;;;;;;;;494210;241;27434;-82
2022/10/11 07:43:00;;;;;;;8.63;3.10;;;;;;;;;;494339;241;26806;-82
2022/10/11 07:45:11;;;;;;;3.77;3.00;;;;;;;;;;494171;240;26938;-81
2022/10/11 07:47:22;;;;;;;10.40;3.20;;;;;;;;;;494130;241;26572;-81
2022/10/11 07:49:33;;;;;;;6.10;3.13;;;;;;;;;;494339;241;26685;-82
2022/10/11 07:51:44;;;;;;;7.20;3.63;;;;;;;;;;494165;241;27091;-81
2022/10/11 07:53:55;;;;;;;9.50;3.60;;;;;;;;;;494161;241;26788;-81
2022/10/11 07:56:06;;;;;;;8.63;3.47;;;;;;;;;;494316;241;26714;-81
2022/10/11 07:58:17;;;;;;;9.53;3.40;;;;;;;;;;494302;241;26708;-82
2022/10/11 08:00:28;;;;;;;10.50;3.17;;;;;;;;;;494342;241;26350;-82
2022/10/11 08:02:39;;;;;;;10.47;2.80;;;;;;;;;;494208;241;27199;-81
2022/10/11 08:04:50;;;;;;;7.80;2.83;;;;;;;;;;494186;241;26778;-82
2022/10/11 08:07:01;;;;;;;4.93;2.13;;;;;;;;;;494222;241;27360;-83
2022/10/11 08:09:12;;;;;;;6.80;2.50;;;;;;;;;;494158;241;26711;-81
2022/10/11 08:11:23;;;;;;;6.20;2.27;;;;;;;;;;494160;241;26714;-81
2022/10/11 08:13:34;;;;;;;8.60;2.50;;;;;;;;;;494372;241;26869;-80
2022/10/11 08:15:45;;;;;;;7.00;2.30;;;;;;;;;;494338;241;26921;-80
2022/10/11 08:17:56;;;;;;;6.80;2.40;;;;;;;;;;494081;237;27295;-80
2022/10/11 08:20:07;;;;;;;9.30;2.27;;;;;;;;;;494325;241;26805;-80
2022/10/11 08:22:18;;;;;;;5.57;2.27;;;;;;;;;;494348;241;27196;-81
2022/10/11 08:24:29;;;;;;;8.17;2.00;;;;;;;;;;494152;241;26791;-81
2022/10/11 08:26:40;;;;;;;7.90;2.43;;;;;;;;;;494085;241;27000;-81
2022/10/11 08:28:51;;;;;;;8.23;2.07;;;;;;;;;;494138;241;27105;-81
2022/10/11 08:31:02;;;;;;;5.10;2.53;;;;;;;;;;494194;241;26847;-80
2022/10/11 08:33:13;;;;;;;7.97;2.27;;;;;;;;;;494178;241;26829;-82
2022/10/11 08:35:24;;;;;;;5.80;2.30;;;;;;;;;;494398;241;26947;-81
2022/10/11 08:37:35;;;;;;;8.43;2.90;;;;;;;;;;494498;237;26698;-81
2022/10/11 08:39:45;;;;;;;6.77;2.40;;;;;;;;;;494299;241;26817;-80
2022/10/11 08:41:57;;;;;;;4.37;2.27;;;;;;;;;;494396;241;27306;-80
2022/10/11 08:44:07;;;;;;;6.17;2.50;;;;;;;;;;494483;241;26586;-83
2022/10/11 08:46:18;;;;;;;8.63;3.30;;;;;;;;;;494493;241;26670;-82
2022/10/11 08:48:28;;;;;;;6.80;2.37;;;;;;;;;;494618;237;27341;-82
2022/10/11 08:50:38;;;;;;;9.83;2.53;;;;;;;;;;494586;241;26769;-82
2022/10/11 08:52:49;;;;;;;5.40;2.53;;;;;;;;;;494588;241;28465;-82
2022/10/11 08:55:01;;;;;;;7.30;2.20;;;;;;;;;;494415;241;26821;-81
2022/10/11 08:57:13;;;;;;;10.70;2.83;;;;;;;;;;494132;241;27054;-81
2022/10/11 08:59:25;;;;;;;5.97;2.10;;;;;;;;;;494139;241;27549;-81
2022/10/11 09:01:37;;;;;;;11.13;2.20;;;;;;;;;;494350;241;27179;-81
2022/10/11 09:03:49;;;;;;;9.30;2.40;;;;;;;;;;494351;241;27025;-81
2022/10/11 09:06:00;;;;;;;9.70;2.73;;;;;;;;;;494329;241;27309;-80
2022/10/11 09:08:12;;;;;;;10.13;2.70;;;;;;;;;;494291;237;27375;-81
2022/10/11 09:10:23;;;;;;;6.33;2.10;;;;;;;;;;494362;241;26804;-81
2022/10/11 09:12:34;;;;;;;6.07;2.20;;;;;;;;;;494376;241;26767;-79
2022/10/11 09:14:45;;;;;;;10.93;2.80;;;;;;;;;;494212;239;27204;-82
2022/10/11 09:16:56;;;;;;;7.00;2.40;;;;;;;;;;494123;241;26869;-80
2022/10/11 09:19:07;;;;;;;7.30;2.97;;;;;;;;;;494185;241;26807;-81
2022/10/11 09:21:17;;;;;;;8.50;2.43;;;;;;;;;;494356;241;26753;-79
2022/10/11 09:23:28;;;;;;;5.77;2.10;;;;;;;;;;494379;241;27195;-79
2022/10/11 09:25:40;;;;;;;7.93;2.57;;;;;;;;;;494179;241;26710;-81
2022/10/11 09:27:43;;;;;;;8.52;2.75;;;;;;;;;;493430;241;46569;-81
2022/10/11 09:29:45;;;;;;;6.17;2.13;;;;;;;;;;494201;241;26745;-81
2022/10/11 09:31:47;;;;;;;6.57;2.53;;;;;;;;;;494178;241;27813;-81
2022/10/11 09:33:51;;;;;;;9.10;2.27;;;;;;;;;;494325;240;28288;-80
2022/10/11 09:35:54;;;;;;;8.00;2.50;;;;;;;;;;494308;241;26825;-81
2022/10/11 09:38:03;;;;;;;8.80;2.27;;;;;;;;;;494281;241;26946;-81
2022/10/11 09:40:12;;;;;;;6.83;2.87;;;;;;;;;;494336;241;26830;-82
2022/10/11 09:42:21;;;;;;;4.50;2.73;;;;;;;;;;494341;241;27355;-81
2022/10/11 09:44:35;;;;;;;9.20;2.73;;;;;;;;;;494183;241;27059;-81
2022/10/11 09:46:44;;;;;;;9.60;2.60;;;;;;;;;;494124;241;26958;-80
2022/10/11 09:49:01;;;;;;;10.33;3.20;;;;;;;;;;494154;241;26834;-81
2022/10/11 09:51:07;;;;;;;6.67;2.90;;;;;;;;;;494204;241;27574;-81
2022/10/11 09:53:24;;;;;;;6.13;2.60;;;;;;;;;;494141;241;26935;-81
2022/10/11 09:55:36;;;;;;;8.40;2.87;;;;;;;;;;494207;241;26941;-81
2022/10/11 09:57:50;;;;;;;13.70;3.47;;;;;;;;;;494105;241;26950;-81
2022/10/11 10:00:01;;;;;;;7.60;2.63;;;;;;;;;;494151;241;27077;-80
2022/10/11 10:02:14;;;;;;;6.13;2.60;;;;;;;;;;494116;241;27260;-81
2022/10/11 10:04:27;;;;;;;9.10;2.53;;;;;;;;;;494405;241;27488;-81
2022/10/11 10:06:42;;;;;;;6.23;3.03;;;;;;;;;;494064;241;27043;-80
2022/10/11 10:08:55;;;;;;;5.27;2.87;;;;;;;;;;494212;241;28062;-80
2022/10/11 10:11:11;;;;;;;5.20;2.37;;;;;;;;;;494153;241;27320;-80
2022/10/11 10:13:28;;;;;;;7.83;2.80;;;;;;;;;;494167;241;27488;-79
2022/10/11 10:15:43;;;;;;;4.30;2.83;;;;;;;;;;494185;241;27125;-80
2022/10/11 10:17:57;;;;;;;6.07;2.23;;;;;;;;;;494248;241;26893;-79
2022/10/11 10:20:13;;;;;;;6.43;2.07;;;;;;;;;;494331;241;27369;-80
2022/10/11 10:22:28;;;;;;;10.50;2.40;;;;;;;;;;494173;241;27220;-80
2022/10/11 10:24:43;;;;;;;5.70;2.23;;;;;;;;;;494139;241;26688;-81
2022/10/11 10:26:55;;;;;;;6.63;2.50;;;;;;;;;;494079;241;27828;-80
2022/10/11 10:29:12;;;;;;;11.33;2.60;;;;;;;;;;494128;241;26799;-80
2022/10/11 10:31:28;;;;;;;8.37;3.07;;;;;;;;;;494156;241;26570;-81
2022/10/11 10:33:44;;;;;;;9.70;2.17;;;;;;;;;;494150;241;27863;-81
2022/10/11 10:35:59;;;;;;;6.87;2.50;;;;;;;;;;494333;241;26771;-80
2022/10/11 10:38:14;;;;;;;7.00;3.00;;;;;;;;;;494288;241;27200;-81
2022/10/11 10:40:29;;;;;;;8.33;2.77;;;;;;;;;;494352;241;26583;-82
2022/10/11 10:42:42;;;;;;;6.93;2.77;;;;;;;;;;494150;237;26855;-81
2022/10/11 10:44:58;;;;;;;8.97;2.30;;;;;;;;;;494262;241;27231;-81
2022/10/11 10:47:07;;;;;;;6.53;2.73;;;;;;;;;;494184;237;26657;-81
2022/10/11 10:49:18;;;;;;;9.10;3.63;;;;;;;;;;494393;241;26759;-82
2022/10/11 10:51:30;;;;;;;5.63;3.10;;;;;;;;;;494336;241;27169;-80
2022/10/11 10:53:41;;;;;;;8.00;3.20;;;;;;;;;;494310;241;27612;-81
2022/10/11 10:55:52;;;;;;;9.10;2.30;;;;;;;;;;494333;241;26674;-81
2022/10/11 10:58:08;;;;;;;7.13;2.47;;;;;;;;;;494060;241;27601;-81
2022/10/11 11:00:18;;;;;;;6.20;2.30;;;;;;;;;;494100;241;26700;-81
2022/10/11 11:02:29;;;;;;;8.10;2.37;;;;;;;;;;494163;241;27870;-82
2022/10/11 11:04:40;;;;;;;5.03;2.07;;;;;;;;;;494340;241;26686;-81
2022/10/11 11:06:52;;;;;;;10.00;3.77;;;;;;;;;;494265;241;28091;-82
2022/10/11 11:09:03;;;;;;;7.43;1.83;;;;;;;;;;494349;241;26697;-81
2022/10/11 11:11:15;;;;;;;5.03;2.00;;;;;;;;;;494161;241;26896;-81
2022/10/11 11:13:27;;;;;;;9.07;2.40;;;;;;;;;;494322;241;27035;-81
2022/10/11 11:15:38;;;;;;;7.47;2.33;;;;;;;;;;494136;241;27327;-81
2022/10/11 11:17:49;;;;;;;8.90;2.30;;;;;;;;;;494248;241;27166;-80
2022/10/11 11:20:00;;;;;;;5.67;2.50;;;;;;;;;;494327;241;27034;-81
2022/10/11 11:22:10;;;;;;;4.60;2.10;;;;;;;;;;494333;237;27279;-81
2022/10/11 11:24:21;;;;;;;7.17;2.17;;;;;;;;;;494326;241;26798;-81
2022/10/11 11:26:31;;;;;;;4.53;2.10;;;;;;;;;;494113;240;27285;-81
2022/10/11 11:28:42;;;;;;;5.57;2.30;;;;;;;;;;494163;241;27970;-81
2022/10/11 11:30:53;;;;;;;5.50;2.07;;;;;;;;;;494122;241;26667;-80
2022/10/11 11:33:01;;;;;;;4.00;1.87;;;;;;;;;;494341;241;27410;-80
2022/10/11 11:35:06;;;;;;;11.47;2.27;;;;;;;;;;494184;241;27153;-81
2022/10/11 11:37:10;;;;;;;5.80;1.90;;;;;;;;;;494054;241;26909;-81
2022/10/11 11:39:20;;;;;;;4.87;2.27;;;;;;;;;;494313;241;27261;-81
2022/10/11 11:41:31;;;;;;;5.77;2.10;;;;;;;;;;494174;241;26797;-80
2022/10/11 11:43:41;;;;;;;4.43;2.07;;;;;;;;;;494133;237;26927;-81
2022/10/11 11:45:51;;;;;;;6.13;2.50;;;;;;;;;;494211;237;26239;-81
2022/10/11 11:48:01;;;;;;;3.20;2.20;;;;;;;;;;494205;237;26609;-80
2022/10/11 11:50:13;;;;;;;7.73;2.47;;;;;;;;;;494319;241;27314;-81
2022/10/11 11:52:20;;;;;;;7.50;2.17;;;;;;;;;;494169;241;26597;-80
2022/10/11 11:54:31;;;;;;;7.97;2.23;;;;;;;;;;494122;241;26895;-80
2022/10/11 11:56:42;;;;;;;3.97;2.10;;;;;;;;;;494245;241;26948;-81
2022/10/11 11:58:51;;;;;;;4.40;1.73;;;;;;;;;;494161;241;27247;-80
2022/10/11 12:01:00;;;;;;;5.97;2.13;;;;;;;;;;494151;241;27636;-80
2022/10/11 12:03:11;;;;;;;8.67;3.53;;;;;;;;;;494287;241;26602;-81
2022/10/11 12:05:21;;;;;;;3.50;1.90;;;;;;;;;;494325;241;27344;-80
2022/10/11 12:07:31;;;;;;;4.43;2.10;;;;;;;;;;494223;237;26882;-80
2022/10/11 12:09:41;;;;;;;7.00;2.60;;;;;;;;;;494271;237;26704;-82
2022/10/11 12:11:51;;;;;;;7.07;2.07;;;;;;;;;;494268;241;27267;-82
2022/10/11 12:14:02;;;;;;;4.73;2.30;;;;;;;;;;494144;241;26721;-81
2022/10/11 12:16:11;;;;;;;4.23;2.00;;;;;;;;;;494121;241;28019;-80
2022/10/11 12:18:19;;;;;;;7.50;1.90;;;;;;;;;;494294;241;26937;-81
2022/10/11 12:20:30;;;;;;;5.63;2.20;;;;;;;;;;494300;241;26349;-81
2022/10/11 12:22:37;;;;;;;9.90;2.27;;;;;;;;;;494239;237;26328;-80
2022/10/11 12:24:46;;;;;;;2.63;1.70;;;;;;;;;;494104;241;26445;-81
2022/10/11 12:26:54;;;;;;;2.37;1.77;;;;;;;;;;494209;241;26705;-80
2022/10/11 12:29:02;;;;;;;4.73;1.83;;;14.20;99.90;;;;;;494293;241;27086;-81
2022/10/11 12:31:10;;;;;;;6.13;2.30;;;;;;;;;;494267;241;26836;-81
2022/10/11 12:33:20;;;;;;;3.37;2.20;;;;;;;;;;494130;241;26709;-80
2022/10/11 12:35:30;;;;;;;3.60;2.00;;;;;;;;;;494112;241;26860;-80
2022/10/11 12:37:39;;;;;;;4.43;1.70;;;;;;;;;;494212;241;26289;-81
2022/10/11 12:39:49;;;;;;;7.20;1.70;;;;;;;;;;494335;240;26812;-81
2022/10/11 12:41:58;;;;;;;3.67;1.80;;;;;;;;;;494115;241;27027;-80